Time;durP1;ratioP1;P1;durP2;ratioP2;P2;SDS_P1;SDS_P2;PMS_P1;PMS_P2;Temp;Humidity;BMP_temperature;BMP_pressure;BME280_temperature;BME280_humidity;BME280_pressure;Samples;Min_cycle;Max_cycle;Signal;HPM_P1;HPM_P2
2021/07/28 00:00:36;;;;;;;9.77;7.50;;;20.70;99.90;;;;;;5101336;28;20159;-84
2021/07/28 00:03:02;;;;;;;9.57;7.30;;;20.60;99.90;;;;;;5101234;28;20167;-84
2021/07/28 00:05:27;;;;;;;11.50;7.83;;;20.60;99.90;;;;;;5085033;28;20223;-84
2021/07/28 00:07:53;;;;;;;9.13;8.13;;;20.50;99.90;;;;;;5101298;28;20190;-84
2021/07/28 00:10:19;;;;;;;11.33;7.83;;;20.60;99.90;;;;;;5101060;28;20243;-84
2021/07/28 00:12:44;;;;;;;9.10;7.53;;;20.50;99.90;;;;;;5101494;28;20159;-84
2021/07/28 00:15:10;;;;;;;11.50;7.53;;;20.50;99.90;;;;;;5101179;28;20166;-84
2021/07/28 00:17:41;;;;;;;9.90;8.17;;;20.50;99.90;;;;;;5112661;28;20511;-82
2021/07/28 00:20:18;;;;;;;8.53;7.73;;;20.40;99.90;;;;;;5118018;28;20464;-82
2021/07/28 00:25:22;;;;;;;8.70;7.90;;;20.50;99.90;;;;;;5117660;28;20416;-81
2021/07/28 00:27:49;;;;;;;9.57;7.60;;;20.50;99.90;;;;;;5116628;28;20408;-81
2021/07/28 00:30:16;;;;;;;11.20;8.43;;;20.60;99.90;;;;;;5099248;28;20491;-83
2021/07/28 00:32:42;;;;;;;13.57;7.50;;;20.60;99.90;;;;;;5083257;28;20415;-81
2021/07/28 00:35:08;;;;;;;9.50;7.70;;;20.50;99.90;;;;;;5099726;28;20457;-81
2021/07/28 00:37:33;;;;;;;11.70;8.63;;;20.60;99.90;;;;;;5113057;28;20166;-84
2021/07/28 00:39:59;;;;;;;12.00;7.80;;;20.50;99.90;;;;;;5100919;28;20159;-83
2021/07/28 00:42:24;;;;;;;15.13;8.40;;;20.50;99.90;;;;;;5100430;28;20226;-83
2021/07/28 00:44:50;;;;;;;9.90;7.70;;;20.50;99.90;;;;;;5100089;28;20170;-83
2021/07/28 00:47:15;;;;;;;9.73;7.27;;;20.50;99.90;;;;;;5101126;28;20172;-85
2021/07/28 00:49:41;;;;;;;7.50;6.70;;;20.50;99.90;;;;;;5100742;28;20166;-84
2021/07/28 00:52:08;;;;;;;13.30;9.17;;;20.50;99.90;;;;;;5100210;28;20165;-84
2021/07/28 00:54:33;;;;;;;10.40;7.97;;;20.50;99.90;;;;;;5092069;28;20488;-83
2021/07/28 00:56:59;;;;;;;8.67;7.40;;;20.50;99.90;;;;;;5100539;28;20396;-83
2021/07/28 00:59:25;;;;;;;8.23;7.43;;;20.40;99.90;;;;;;5118656;28;20154;-81
2021/07/28 01:01:52;;;;;;;8.47;6.67;;;20.40;99.90;;;;;;5110016;28;20392;-84
2021/07/28 01:04:19;;;;;;;15.80;9.90;;;20.40;99.90;;;;;;5099451;28;20194;-84
2021/07/28 01:06:52;;;;;;;9.43;8.00;;;20.40;99.90;;;;;;5101650;28;20416;-84
2021/07/28 01:09:20;;;;;;;9.93;8.50;;;20.40;99.90;;;;;;5103443;28;20444;-84
2021/07/28 01:11:49;;;;;;;8.83;7.90;;;20.40;99.90;;;;;;5087956;28;20947;-84
2021/07/28 01:14:15;;;;;;;12.20;8.43;;;20.30;99.90;;;;;;5057868;28;20794;-84
2021/07/28 01:16:45;;;;;;;9.37;7.77;;;20.30;99.90;;;;;;5059316;28;20423;-84
2021/07/28 01:19:20;;;;;;;7.97;7.13;;;20.20;99.90;;;;;;5042764;28;20398;-84
2021/07/28 01:21:49;;;;;;;10.07;8.50;;;20.30;99.90;;;;;;5057453;28;20398;-84
2021/07/28 01:24:15;;;;;;;9.00;8.07;;;20.30;99.90;;;;;;5056921;28;20407;-84
2021/07/28 01:26:42;;;;;;;10.50;8.17;;;20.30;99.90;;;;;;5056510;28;20553;-84
2021/07/28 01:29:09;;;;;;;9.57;8.10;;;20.20;99.90;;;;;;5056815;28;20425;-84
2021/07/28 01:31:44;;;;;;;9.13;7.37;;;20.30;99.90;;;;;;5057953;28;20485;-84
2021/07/28 01:34:10;;;;;;;8.30;7.30;;;20.20;99.90;;;;;;5057815;28;20467;-84
2021/07/28 01:36:36;;;;;;;9.70;8.50;;;20.20;99.90;;;;;;5040321;28;20398;-84
2021/07/28 01:39:04;;;;;;;9.10;8.20;;;20.20;99.90;;;;;;5056904;28;20407;-83
2021/07/28 01:41:32;;;;;;;8.07;7.27;;;20.10;99.90;;;;;;5055990;28;20232;-82
2021/07/28 01:43:58;;;;;;;16.50;8.70;;;20.10;99.90;;;;;;5056617;28;20406;-84
2021/07/28 01:46:23;;;;;;;8.97;7.53;;;20.10;99.90;;;;;;5098972;28;20421;-84
2021/07/28 01:48:49;;;;;;;10.20;7.80;;;20.10;99.90;;;;;;5100178;28;20163;-84
2021/07/28 01:51:14;;;;;;;10.33;7.60;;;20.00;99.90;;;;;;5099203;28;20281;-84
2021/07/28 01:53:43;;;;;;;9.60;7.80;;;20.00;99.90;;;;;;5098375;28;20502;-84
2021/07/28 01:56:09;;;;;;;13.17;8.10;;;20.10;99.90;;;;;;5098422;28;20166;-84
2021/07/28 01:58:38;;;;;;;9.00;6.73;;;20.00;99.90;;;;;;5097951;28;20736;-84
2021/07/28 02:01:03;;;;;;;8.50;7.70;;;20.10;99.90;;;;;;5104456;28;20163;-85
2021/07/28 02:03:29;;;;;;;9.83;8.27;;;20.10;99.90;;;;;;5041625;28;20446;-85
2021/07/28 02:06:06;;;;;;;9.47;8.40;;;20.00;99.90;;;;;;4996553;28;20228;-85
2021/07/28 02:08:32;;;;;;;8.87;8.00;;;20.10;99.90;;;;;;5008832;28;20435;-85
2021/07/28 02:11:00;;;;;;;7.90;7.10;;;19.90;99.90;;;;;;5009787;28;20554;-85
2021/07/28 02:13:26;;;;;;;8.47;7.67;;;20.00;99.90;;;;;;5010076;28;20332;-85
2021/07/28 02:15:54;;;;;;;10.07;8.57;;;20.00;99.90;;;;;;5010010;28;20475;-86
2021/07/28 02:18:36;;;;;;;12.73;8.10;;;19.80;99.90;;;;;;4966321;28;20188;-85
2021/07/28 02:21:05;;;;;;;9.47;7.50;;;19.60;99.90;;;;;;5027270;28;20403;-85
2021/07/28 02:23:35;;;;;;;11.00;8.70;;;19.70;99.90;;;;;;5026977;28;20864;-85
2021/07/28 02:26:01;;;;;;;9.43;8.47;;;19.80;99.90;;;;;;4977445;28;20465;-85
2021/07/28 02:28:29;;;;;;;10.67;8.03;;;19.90;99.90;;;;;;5026827;28;20415;-85
2021/07/28 02:30:55;;;;;;;10.53;8.23;;;19.80;99.90;;;;;;5003277;28;20237;-85
2021/07/28 02:33:45;;;;;;;8.80;7.37;;;19.80;99.90;;;;;;4936215;29;20406;-85
2021/07/28 02:36:12;;;;;;;8.60;7.77;;;19.70;99.90;;;;;;4968995;28;20414;-85
2021/07/28 02:38:58;;;;;;;8.10;7.30;;;19.70;99.90;;;;;;4956963;28;20581;-85
2021/07/28 02:41:24;;;;;;;9.23;8.27;;;19.70;99.90;;;;;;4948719;29;20490;-85
2021/07/28 02:43:51;;;;;;;8.77;7.97;;;19.70;99.90;;;;;;4964674;29;20423;-85
2021/07/28 02:46:17;;;;;;;8.70;7.80;;;19.70;99.90;;;;;;4949176;29;20207;-85
2021/07/28 02:48:44;;;;;;;11.17;7.87;;;19.60;99.90;;;;;;4948847;29;20954;-85
2021/07/28 02:51:12;;;;;;;13.10;8.37;;;19.60;99.90;;;;;;4967360;28;20459;-85
2021/07/28 02:53:38;;;;;;;8.70;7.57;;;19.60;99.90;;;;;;4953321;29;20422;-85
2021/07/28 02:56:04;;;;;;;8.30;7.50;;;19.70;99.90;;;;;;4956108;29;20167;-82
2021/07/28 02:58:32;;;;;;;9.03;7.90;;;19.80;99.90;;;;;;4966045;29;20215;-83
2021/07/28 03:03:33;;;;;;;10.27;8.20;;;19.60;99.90;;;;;;5136217;28;20213;-83
2021/07/28 03:06:01;;;;;;;11.87;8.53;;;19.60;99.90;;;;;;5124733;28;20489;-82
2021/07/28 03:08:29;;;;;;;13.30;9.37;;;19.60;99.90;;;;;;5124580;28;20246;-82
2021/07/28 03:10:55;;;;;;;12.37;8.40;;;19.60;99.90;;;;;;5124367;28;20457;-83
2021/07/28 03:13:27;;;;;;;9.80;8.80;;;19.70;99.90;;;;;;5109204;28;20459;-83
2021/07/28 03:15:52;;;;;;;9.07;7.53;;;19.70;99.90;;;;;;5124290;28;20404;-83
2021/07/28 03:18:20;;;;;;;9.10;8.10;;;19.70;99.90;;;;;;5063074;28;20448;-82
2021/07/28 03:20:46;;;;;;;9.73;8.50;;;19.40;99.90;;;;;;5026906;28;20240;-82
2021/07/28 03:23:12;;;;;;;9.20;8.23;;;19.00;99.90;;;;;;5010366;28;20438;-83
2021/07/28 03:25:39;;;;;;;8.43;7.57;;;19.10;99.90;;;;;;4999521;28;20410;-82
2021/07/28 03:28:05;;;;;;;10.80;9.00;;;19.00;99.90;;;;;;4961260;28;20293;-83
2021/07/28 03:30:30;;;;;;;9.70;8.70;;;18.90;99.90;;;;;;4945675;29;20455;-82
2021/07/28 03:32:57;;;;;;;9.30;8.13;;;18.90;99.90;;;;;;4946018;28;20196;-82
2021/07/28 03:35:32;;;;;;;12.47;8.87;;;19.00;99.90;;;;;;4946850;29;20275;-82
2021/07/28 03:37:58;;;;;;;10.40;8.80;;;19.20;99.90;;;;;;4945694;29;20423;-82
2021/07/28 03:40:24;;;;;;;11.70;9.33;;;19.10;99.90;;;;;;4904572;29;20200;-83
2021/07/28 03:42:50;;;;;;;12.53;9.83;;;19.10;99.90;;;;;;4873726;29;20478;-82
2021/07/28 03:45:16;;;;;;;9.20;8.20;;;19.10;99.90;;;;;;4873347;29;20178;-82
2021/07/28 03:47:42;;;;;;;12.37;9.10;;;19.00;99.90;;;;;;4874122;29;20170;-83
2021/07/28 03:50:12;;;;;;;9.40;8.43;;;18.90;99.90;;;;;;4890764;29;20473;-82
2021/07/28 03:52:37;;;;;;;10.43;7.93;;;18.80;99.90;;;;;;4891846;29;20457;-83
2021/07/28 03:55:04;;;;;;;13.10;9.40;;;18.90;99.90;;;;;;4907584;29;20417;-83
2021/07/28 03:57:30;;;;;;;12.00;10.17;;;18.90;99.90;;;;;;4945263;28;20546;-85
2021/07/28 04:00:00;;;;;;;17.07;10.53;;;18.70;99.90;;;;;;4939285;28;20426;-85
2021/07/28 04:02:25;;;;;;;10.30;8.63;;;18.60;99.90;;;;;;4985215;28;20472;-85
2021/07/28 04:04:51;;;;;;;10.33;9.33;;;18.80;99.90;;;;;;4951055;29;20999;-85
2021/07/28 04:07:18;;;;;;;12.80;10.60;;;18.80;99.90;;;;;;4966974;29;20189;-85
2021/07/28 04:09:48;;;;;;;12.60;9.30;;;18.80;99.90;;;;;;4951272;29;20218;-85
2021/07/28 04:12:13;;;;;;;10.13;8.70;;;18.50;99.90;;;;;;5034661;28;20950;-85
2021/07/28 04:14:39;;;;;;;13.10;10.80;;;18.60;99.90;;;;;;5028368;28;20416;-85
2021/07/28 04:17:10;;;;;;;10.83;9.10;;;18.70;99.90;;;;;;5012060;28;20207;-87
2021/07/28 04:19:37;;;;;;;13.63;11.10;;;18.60;99.90;;;;;;5048056;28;20436;-85
2021/07/28 04:22:02;;;;;;;10.67;8.60;;;18.60;99.90;;;;;;5048984;28;20403;-85
2021/07/28 04:24:29;;;;;;;14.13;11.77;;;18.60;99.90;;;;;;5065296;28;20421;-85
2021/07/28 04:26:58;;;;;;;12.40;10.27;;;18.70;99.90;;;;;;5033884;28;20211;-85
2021/07/28 04:29:25;;;;;;;9.90;8.93;;;18.60;99.90;;;;;;5052736;28;20395;-83
2021/07/28 04:31:55;;;;;;;11.47;9.17;;;18.80;99.90;;;;;;5033953;28;20450;-86
2021/07/28 04:34:24;;;;;;;10.23;9.23;;;18.70;99.90;;;;;;5065188;28;20430;-85
2021/07/28 04:36:49;;;;;;;9.93;8.97;;;18.80;99.90;;;;;;5029663;28;20454;-85
2021/07/28 04:39:15;;;;;;;12.97;9.20;;;19.00;99.90;;;;;;5046898;28;20901;-85
2021/07/28 04:41:40;;;;;;;10.17;9.00;;;19.00;99.90;;;;;;5047311;28;20213;-85
2021/07/28 04:44:06;;;;;;;11.33;9.67;;;18.90;99.90;;;;;;4984196;28;20186;-87
2021/07/28 04:46:33;;;;;;;11.30;8.80;;;19.20;99.90;;;;;;4959677;29;20297;-87
2021/07/28 04:49:04;;;;;;;11.73;10.53;;;19.00;99.90;;;;;;4921756;29;20212;-87
2021/07/28 04:51:30;;;;;;;9.80;8.80;;;19.20;99.90;;;;;;4906115;29;20496;-88
2021/07/28 04:54:01;;;;;;;11.50;9.10;;;19.20;99.90;;;;;;4905531;29;20429;-87
2021/07/28 04:56:28;;;;;;;12.80;9.30;;;19.00;99.90;;;;;;4887417;29;20199;-87
2021/07/28 04:58:55;;;;;;;9.13;8.20;;;18.80;99.90;;;;;;4886981;29;20421;-87
2021/07/28 05:01:45;;;;;;;11.30;9.77;;;18.80;99.90;;;;;;4899558;29;20462;-86
2021/07/28 05:04:11;;;;;;;11.90;9.97;;;18.90;99.90;;;;;;4903585;29;20418;-87
2021/07/28 05:06:41;;;;;;;11.90;9.20;;;19.00;99.90;;;;;;4887576;29;20413;-86
2021/07/28 05:09:08;;;;;;;11.23;9.60;;;19.10;99.90;;;;;;4903097;29;21199;-87
2021/07/28 05:11:37;;;;;;;11.47;10.17;;;19.20;99.90;;;;;;4887197;29;20477;-86
2021/07/28 05:14:23;;;;;;;12.70;9.50;;;19.00;99.90;;;;;;4887178;29;20494;-87
2021/07/28 05:16:48;;;;;;;11.10;9.77;;;19.00;99.90;;;;;;4910786;29;20781;-87
2021/07/28 05:19:19;;;;;;;12.13;9.93;;;19.10;99.90;;;;;;4909921;29;20192;-86
2021/07/28 05:21:44;;;;;;;12.87;11.03;;;19.00;99.90;;;;;;4960332;29;20164;-86
2021/07/28 05:24:10;;;;;;;11.37;9.43;;;19.00;99.90;;;;;;4970122;28;20426;-84
2021/07/28 05:26:36;;;;;;;12.10;10.40;;;18.90;99.90;;;;;;4994322;28;20209;-86
2021/07/28 05:29:24;;;;;;;10.40;8.87;;;18.80;99.90;;;;;;4953390;29;20650;-83
2021/07/28 05:31:55;;;;;;;10.83;9.73;;;18.70;99.90;;;;;;4914427;29;20472;-84
2021/07/28 05:34:21;;;;;;;11.23;9.57;;;18.80;99.90;;;;;;4947005;29;20411;-85
2021/07/28 05:37:17;;;;;;;12.47;9.23;;;18.70;99.90;;;;;;4972416;29;20479;-86
2021/07/28 05:39:42;;;;;;;10.83;7.97;;;18.90;99.90;;;;;;4893282;29;20412;-86
2021/07/28 05:42:10;;;;;;;14.67;10.70;;;19.20;99.90;;;;;;4880923;29;20442;-86
2021/07/28 05:45:04;;;;;;;10.33;9.33;;;19.40;99.90;;;;;;4905090;29;20207;-86
2021/07/28 05:47:30;;;;;;;12.70;9.07;;;19.40;99.90;;;;;;4887284;29;20462;-87
2021/07/28 05:49:58;;;;;;;10.87;9.77;;;19.60;99.90;;;;;;4927954;29;20438;-86
2021/07/28 05:52:24;;;;;;;9.33;8.43;;;19.10;99.90;;;;;;4860731;29;20213;-87
2021/07/28 05:54:52;;;;;;;10.67;8.83;;;19.10;99.90;;;;;;4890843;29;20545;-86
2021/07/28 05:57:19;;;;;;;12.47;8.37;;;19.20;99.90;;;;;;4888154;29;20435;-86
2021/07/28 05:59:45;;;;;;;9.70;7.70;;;19.40;99.90;;;;;;4906645;29;20195;-86
2021/07/28 06:02:15;;;;;;;9.50;8.50;;;19.60;99.90;;;;;;4868383;29;20499;-86
2021/07/28 06:04:44;;;;;;;7.70;6.87;;;19.90;99.90;;;;;;4866750;29;20455;-86
2021/07/28 06:07:35;;;;;;;10.40;9.20;;;19.90;99.90;;;;;;4862354;29;20445;-86
2021/07/28 06:10:03;;;;;;;9.20;7.37;;;19.90;99.90;;;;;;4847228;29;20477;-86
2021/07/28 06:12:32;;;;;;;8.57;6.90;;;19.70;99.90;;;;;;4859075;29;20201;-86
2021/07/28 06:14:58;;;;;;;13.13;7.20;;;19.60;99.90;;;;;;4888697;29;20419;-87
2021/07/28 06:17:26;;;;;;;9.27;8.27;;;20.00;99.90;;;;;;4873318;29;20194;-87
2021/07/28 06:20:00;;;;;;;8.90;8.00;;;19.80;99.90;;;;;;4889460;29;20451;-87
2021/07/28 06:22:36;;;;;;;8.93;8.00;;;20.00;99.90;;;;;;4887754;29;20904;-86
2021/07/28 06:25:08;;;;;;;9.60;8.60;;;20.10;99.90;;;;;;4864409;29;20450;-86
2021/07/28 06:27:40;;;;;;;8.20;7.43;;;20.00;99.90;;;;;;4881468;29;20447;-86
2021/07/28 06:30:27;;;;;;;7.87;7.17;;;20.30;99.90;;;;;;4904040;29;20474;-87
2021/07/28 06:32:54;;;;;;;8.63;7.10;;;20.60;99.90;;;;;;4929216;29;20248;-87
2021/07/28 06:35:42;;;;;;;7.63;6.83;;;20.80;99.90;;;;;;4926148;29;20409;-86
2021/07/28 06:38:08;;;;;;;6.30;5.63;;;21.10;99.90;;;;;;4908736;29;20478;-87
2021/07/28 06:40:45;;;;;;;6.80;6.10;;;21.20;99.90;;;;;;4933053;29;20173;-86
2021/07/28 06:43:12;;;;;;;6.77;6.17;;;21.00;99.90;;;;;;4967725;28;20212;-86
2021/07/28 06:46:04;;;;;;;5.77;5.23;;;20.10;99.90;;;;;;4982020;28;20453;-86
2021/07/28 06:48:45;;;;;;;5.33;4.90;;;20.70;99.90;;;;;;4923719;29;20417;-87
2021/07/28 06:51:14;;;;;;;7.20;6.50;;;20.80;99.90;;;;;;4923748;29;20994;-87
2021/07/28 06:53:44;;;;;;;11.83;6.23;;;20.90;99.90;;;;;;4906257;29;20597;-87
2021/07/28 06:56:13;;;;;;;9.43;5.57;;;21.00;99.90;;;;;;4919143;29;20428;-86
2021/07/28 06:58:42;;;;;;;5.33;4.83;;;21.10;99.90;;;;;;4905039;29;20427;-86
2021/07/28 07:01:08;;;;;;;8.70;6.60;;;21.20;99.90;;;;;;4893916;29;20460;-86
2021/07/28 07:03:38;;;;;;;7.83;6.47;;;20.50;99.90;;;;;;4908328;29;20471;-87
2021/07/28 07:06:07;;;;;;;7.33;6.63;;;20.30;99.90;;;;;;4905982;29;20437;-87
2021/07/28 07:08:56;;;;;;;9.43;5.93;;;20.60;99.90;;;;;;4842565;29;20468;-87
2021/07/28 07:11:22;;;;;;;6.80;6.10;;;21.00;99.90;;;;;;4847271;29;20475;-87
2021/07/28 07:13:47;;;;;;;5.67;5.17;;;21.20;99.90;;;;;;4859868;29;20191;-87
2021/07/28 07:16:14;;;;;;;5.93;5.43;;;21.20;99.90;;;;;;4859536;29;20189;-85
2021/07/28 07:18:43;;;;;;;5.90;5.40;;;21.20;99.90;;;;;;5219579;22;20232;-86
2021/07/28 07:21:09;;;;;;;7.80;6.10;;;21.40;99.90;;;;;;5065370;28;20424;-85
2021/07/28 07:23:39;;;;;;;7.10;6.37;;;21.20;99.90;;;;;;5063531;28;20294;-86
2021/07/28 07:26:07;;;;;;;9.77;5.90;;;21.40;99.90;;;;;;5014632;28;20533;-86
2021/07/28 07:28:34;;;;;;;8.53;6.30;;;21.30;99.90;;;;;;5063855;28;20494;-86
2021/07/28 07:31:00;;;;;;;6.50;5.40;;;21.40;99.90;;;;;;5031825;28;20446;-86
2021/07/28 07:33:44;;;;;;;8.03;6.30;;;21.30;99.90;;;;;;5027459;28;20423;-86
2021/07/28 07:36:14;;;;;;;6.60;4.87;;;21.30;99.90;;;;;;5046504;28;20477;-86
2021/07/28 07:38:48;;;;;;;7.43;6.23;;;21.30;99.90;;;;;;4993027;28;20507;-86
2021/07/28 07:41:16;;;;;;;6.70;5.77;;;21.50;99.90;;;;;;4995652;28;20436;-86
2021/07/28 07:44:02;;;;;;;5.63;5.13;;;21.70;99.90;;;;;;4949820;29;20439;-86
2021/07/28 07:46:30;;;;;;;6.53;5.00;;;21.20;99.90;;;;;;4918795;29;20412;-85
2021/07/28 07:48:57;;;;;;;5.40;5.00;;;21.00;99.90;;;;;;4921806;29;20400;-84
2021/07/28 07:51:28;;;;;;;6.20;5.70;;;21.00;99.90;;;;;;4906741;29;20561;-86
2021/07/28 07:53:54;;;;;;;5.40;4.90;;;21.10;99.90;;;;;;4901409;29;20499;-86
2021/07/28 07:56:21;;;;;;;5.67;4.70;;;21.20;99.90;;;;;;4961258;29;20493;-85
2021/07/28 07:58:50;;;;;;;5.90;4.70;;;21.60;99.90;;;;;;4934858;29;20447;-86
2021/07/28 08:01:17;;;;;;;5.10;4.70;;;21.00;99.90;;;;;;4934504;29;20467;-86
2021/07/28 08:03:43;;;;;;;6.80;5.50;;;21.20;99.90;;;;;;4951365;29;20436;-85
2021/07/28 08:06:09;;;;;;;5.03;4.63;;;21.30;99.90;;;;;;4934287;29;20427;-86
2021/07/28 08:08:38;;;;;;;5.27;4.77;;;21.80;99.90;;;;;;4944452;28;20218;-86
2021/07/28 08:11:08;;;;;;;9.93;4.63;;;21.70;99.90;;;;;;4988993;28;20485;-86
2021/07/28 08:13:36;;;;;;;4.07;3.77;;;21.90;99.90;;;;;;4988463;28;20536;-86
2021/07/28 08:16:08;;;;;;;4.37;3.87;;;22.10;99.90;;;;;;4952970;28;20441;-86
2021/07/28 08:18:33;;;;;;;4.70;4.30;;;22.30;99.90;;;;;;4980710;28;20957;-86
2021/07/28 08:21:01;;;;;;;8.60;4.83;;;22.10;99.90;;;;;;4990146;28;20548;-85
2021/07/28 08:23:27;;;;;;;4.13;3.73;;;22.10;99.90;;;;;;5028765;28;20188;-86
2021/07/28 08:26:16;;;;;;;8.03;4.90;;;22.30;99.90;;;;;;5025565;28;20435;-86
2021/07/28 08:28:45;;;;;;;5.00;4.60;;;21.70;99.90;;;;;;4946688;29;20428;-86
2021/07/28 08:31:10;;;;;;;9.97;5.50;;;21.80;99.90;;;;;;4930693;29;20470;-85
2021/07/28 08:33:37;;;;;;;5.10;4.40;;;21.90;99.90;;;;;;4955529;29;20439;-85
2021/07/28 08:36:07;;;;;;;7.43;4.93;;;21.90;99.90;;;;;;4930178;29;20195;-86
2021/07/28 08:38:36;;;;;;;7.50;5.03;;;21.90;99.90;;;;;;4930768;29;20427;-86
2021/07/28 08:41:03;;;;;;;6.20;4.87;;;22.20;99.90;;;;;;4908421;29;20516;-86
2021/07/28 08:43:34;;;;;;;6.97;5.17;;;22.10;99.90;;;;;;4924910;29;20246;-86
2021/07/28 08:46:03;;;;;;;8.53;5.60;;;22.20;99.90;;;;;;4909944;29;20457;-85
2021/07/28 08:48:29;;;;;;;5.87;5.37;;;21.60;99.90;;;;;;4909880;29;20426;-86
2021/07/28 08:50:59;;;;;;;5.53;4.43;;;22.00;99.90;;;;;;4928895;29;20469;-86
2021/07/28 08:53:28;;;;;;;7.67;4.27;;;22.20;99.90;;;;;;4949243;29;20435;-86
2021/07/28 08:55:55;;;;;;;4.63;3.73;;;22.30;99.90;;;;;;4901795;29;20427;-83
2021/07/28 08:58:31;;;;;;;4.63;4.23;;;22.30;99.90;;;;;;4923955;29;20440;-84
2021/07/28 09:00:58;;;;;;;5.83;4.20;;;22.40;99.90;;;;;;4941830;29;20444;-86
2021/07/28 09:03:45;;;;;;;8.67;4.40;;;22.30;99.90;;;;;;4932134;29;20419;-85
2021/07/28 09:06:26;;;;;;;5.67;5.07;;;22.40;99.90;;;;;;4956564;28;20437;-85
2021/07/28 09:09:00;;;;;;;4.40;4.00;;;22.40;99.90;;;;;;5002394;28;20461;-86
2021/07/28 09:11:26;;;;;;;5.70;4.43;;;22.20;99.90;;;;;;4996314;28;20553;-83
2021/07/28 09:13:55;;;;;;;5.17;4.50;;;22.20;99.90;;;;;;4990222;28;20548;-84
2021/07/28 09:16:21;;;;;;;7.67;4.87;;;22.10;99.90;;;;;;5006985;28;20571;-86
2021/07/28 09:18:51;;;;;;;4.40;4.07;;;22.20;99.90;;;;;;5004544;28;20468;-84
2021/07/28 09:21:30;;;;;;;5.10;4.70;;;22.40;99.90;;;;;;4999936;28;20257;-86
2021/07/28 09:24:11;;;;;;;4.60;3.40;;;22.40;99.90;;;;;;4995537;28;20426;-83
2021/07/28 09:26:43;;;;;;;4.23;3.83;;;22.00;99.90;;;;;;4963679;29;20466;-84
2021/07/28 09:29:16;;;;;;;4.53;3.37;;;22.10;99.90;;;;;;4954221;29;20434;-84
2021/07/28 09:31:45;;;;;;;4.60;4.10;;;22.10;99.90;;;;;;4969015;29;20510;-86
2021/07/28 09:34:33;;;;;;;5.33;4.00;;;21.80;99.90;;;;;;4969935;28;20418;-86
2021/07/28 09:37:05;;;;;;;5.30;4.00;;;22.00;99.90;;;;;;4932477;29;20457;-86
2021/07/28 09:39:34;;;;;;;5.87;4.60;;;22.20;99.90;;;;;;4906197;29;20429;-86
2021/07/28 09:42:11;;;;;;;5.20;4.47;;;22.30;99.90;;;;;;4901529;29;20439;-86
2021/07/28 09:44:39;;;;;;;3.90;3.50;;;22.00;99.90;;;;;;4917457;29;20436;-86
2021/07/28 09:47:10;;;;;;;5.03;4.47;;;22.00;99.90;;;;;;4924760;29;20452;-86
2021/07/28 09:49:37;;;;;;;5.10;4.40;;;22.20;99.90;;;;;;4932967;29;20427;-86
2021/07/28 09:52:34;;;;;;;6.17;4.47;;;21.80;99.90;;;;;;4899704;29;20452;-88
2021/07/28 09:55:27;;;;;;;4.27;3.47;;;21.40;99.90;;;;;;4898977;29;20424;-86
2021/07/28 09:57:59;;;;;;;4.80;4.33;;;21.60;99.90;;;;;;4950852;29;20474;-85
2021/07/28 10:00:45;;;;;;;5.70;5.03;;;21.40;99.90;;;;;;4945209;29;20443;-86
2021/07/28 10:03:11;;;;;;;9.07;4.90;;;21.20;99.90;;;;;;4931493;29;20530;-87
2021/07/28 10:05:38;;;;;;;6.43;5.40;;;21.50;99.90;;;;;;4958267;28;20205;-87
2021/07/28 10:08:07;;;;;;;5.23;4.00;;;21.50;99.90;;;;;;4986140;28;20451;-87
2021/07/28 10:10:35;;;;;;;6.20;4.27;;;21.40;99.90;;;;;;5043945;28;20467;-86
2021/07/28 10:13:01;;;;;;;7.60;4.50;;;21.10;99.90;;;;;;5029523;28;20431;-86
2021/07/28 10:15:28;;;;;;;5.10;4.57;;;21.30;99.90;;;;;;5034556;28;20431;-87
2021/07/28 10:17:54;;;;;;;6.40;4.73;;;21.20;99.90;;;;;;5023964;28;20256;-86
2021/07/28 10:20:39;;;;;;;5.73;4.70;;;21.30;99.90;;;;;;5061213;28;20458;-86
2021/07/28 10:23:06;;;;;;;7.80;3.83;;;21.20;99.90;;;;;;5013108;28;20436;-85
2021/07/28 10:25:32;;;;;;;5.20;4.70;;;21.50;99.90;;;;;;5012967;28;20432;-87
2021/07/28 10:27:58;;;;;;;4.77;4.13;;;21.30;99.90;;;;;;4999650;28;20444;-86
2021/07/28 10:30:24;;;;;;;12.53;4.67;;;21.30;99.90;;;;;;5014466;28;20221;-85
2021/07/28 10:33:21;;;;;;;5.10;4.60;;;21.60;99.90;;;;;;5014413;28;20193;-87
2021/07/28 10:35:50;;;;;;;7.10;4.60;;;21.40;99.90;;;;;;4964446;29;20198;-87
2021/07/28 10:38:20;;;;;;;5.60;4.87;;;21.60;99.90;;;;;;4959086;29;20964;-86
2021/07/28 10:40:51;;;;;;;5.53;5.03;;;21.90;99.90;;;;;;4950274;29;20479;-87
2021/07/28 10:43:17;;;;;;;5.80;5.10;;;21.90;99.90;;;;;;4929707;29;20436;-87
2021/07/28 10:45:55;;;;;;;6.27;5.10;;;21.90;99.90;;;;;;4935036;29;20435;-86
2021/07/28 10:48:48;;;;;;;5.47;4.97;;;21.30;99.90;;;;;;4955788;29;20293;-86
2021/07/28 10:51:52;;;;;;;5.53;4.30;;;21.30;99.90;;;;;;4948047;29;20513;-87
2021/07/28 10:54:18;;;;;;;6.07;5.47;;;21.40;99.90;;;;;;4999214;28;20419;-87
2021/07/28 10:57:17;;;;;;;5.40;4.90;;;21.80;99.90;;;;;;5004292;28;20429;-87
2021/07/28 10:59:45;;;;;;;4.57;4.13;;;21.90;99.90;;;;;;5021594;28;20428;-86
2021/07/28 11:02:11;;;;;;;5.63;5.13;;;22.10;99.90;;;;;;5052663;28;20430;-87
2021/07/28 11:04:37;;;;;;;4.50;3.77;;;22.30;99.90;;;;;;5056693;28;20453;-87
2021/07/28 11:07:03;;;;;;;8.03;4.87;;;22.40;99.90;;;;;;5073199;28;20186;-85
2021/07/28 11:09:29;;;;;;;4.57;4.10;;;22.70;99.90;;;;;;5048119;28;20516;-87
2021/07/28 11:11:55;;;;;;;5.70;5.13;;;23.40;99.90;;;;;;5085771;28;20247;-87
2021/07/28 11:14:22;;;;;;;5.80;4.63;;;24.00;99.90;;;;;;5091190;28;20170;-87
2021/07/28 11:16:52;;;;;;;5.37;4.87;;;23.40;99.90;;;;;;5045108;28;20428;-86
2021/07/28 11:19:19;;;;;;;5.93;4.67;;;22.70;99.90;;;;;;5074617;28;20218;-87
2021/07/28 11:21:46;;;;;;;5.90;4.87;;;22.40;99.90;;;;;;5071601;28;20428;-89
2021/07/28 11:24:11;;;;;;;6.47;4.47;;;22.50;99.90;;;;;;5073565;28;20419;-87
2021/07/28 11:26:40;;;;;;;6.03;5.43;;;22.00;99.90;;;;;;5066790;28;20451;-87
2021/07/28 11:29:09;;;;;;;4.73;4.33;;;22.30;99.90;;;;;;5076211;28;20182;-85
2021/07/28 11:31:37;;;;;;;5.53;4.80;;;22.50;99.90;;;;;;5071703;28;20467;-87
2021/07/28 11:34:09;;;;;;;5.30;4.30;;;22.60;99.90;;;;;;5088382;28;20425;-87
2021/07/28 11:36:35;;;;;;;7.93;4.90;;;22.50;99.90;;;;;;5080915;28;20432;-87
2021/07/28 11:39:13;;;;;;;8.20;4.60;;;22.20;99.90;;;;;;5073761;28;20428;-87
2021/07/28 11:41:39;;;;;;;6.27;4.57;;;21.80;99.90;;;;;;5085810;28;20420;-86
2021/07/28 11:44:05;;;;;;;4.97;4.50;;;22.00;99.90;;;;;;5077188;28;20421;-87
2021/07/28 11:46:31;;;;;;;5.23;4.73;;;22.60;99.90;;;;;;5082561;28;20432;-86
2021/07/28 11:48:57;;;;;;;4.43;4.03;;;22.80;99.90;;;;;;5072393;28;20174;-87
2021/07/28 11:51:27;;;;;;;5.73;4.97;;;23.00;99.90;;;;;;5058685;28;20270;-87
2021/07/28 11:54:14;;;;;;;4.33;3.90;;;22.70;99.90;;;;;;5099821;28;20451;-87
2021/07/28 11:56:54;;;;;;;5.43;4.93;;;22.90;99.90;;;;;;5074576;28;20509;-87
2021/07/28 11:59:24;;;;;;;7.63;5.20;;;22.30;99.90;;;;;;5044927;28;20439;-87
2021/07/28 12:01:54;;;;;;;4.87;4.20;;;22.50;99.90;;;;;;5048089;28;21010;-86
2021/07/28 12:04:22;;;;;;;5.50;4.33;;;22.90;99.90;;;;;;5041049;28;20443;-86
2021/07/28 12:06:48;;;;;;;8.00;4.40;;;23.20;99.90;;;;;;5034425;28;20446;-87
2021/07/28 12:09:19;;;;;;;4.87;4.10;;;22.90;99.90;;;;;;5025899;28;20537;-86
2021/07/28 12:12:00;;;;;;;4.60;4.10;;;22.90;99.90;;;;;;5042096;28;20224;-86
2021/07/28 12:14:38;;;;;;;6.07;4.70;;;22.60;99.90;;;;;;5026012;28;20764;-87
2021/07/28 12:17:07;;;;;;;5.00;4.40;;;22.70;99.90;;;;;;5021907;28;20483;-85
2021/07/28 12:19:51;;;;;;;5.97;4.80;;;22.50;99.90;;;;;;5040976;28;20529;-87
2021/07/28 12:22:27;;;;;;;8.20;7.10;;;22.80;99.90;;;;;;5042293;28;20521;-87
2021/07/28 12:25:15;;;;;;;4.43;4.10;;;23.20;99.90;;;;;;5047263;28;20479;-86
2021/07/28 12:28:02;;;;;;;6.90;4.83;;;23.80;99.90;;;;;;5034162;28;20470;-87
2021/07/28 12:30:41;;;;;;;4.47;4.07;;;23.50;99.90;;;;;;5055156;28;20458;-87
2021/07/28 12:33:15;;;;;;;6.07;5.47;;;23.10;99.90;;;;;;5061876;28;20441;-86
2021/07/28 12:35:46;;;;;;;5.03;4.60;;;23.10;99.90;;;;;;5058759;28;20430;-86
2021/07/28 12:38:22;;;;;;;4.70;4.30;;;22.60;99.90;;;;;;5014009;28;20429;-86
2021/07/28 12:40:55;;;;;;;5.50;5.00;;;22.60;99.90;;;;;;5040184;28;20411;-86
2021/07/28 12:43:23;;;;;;;5.80;5.20;;;22.50;99.90;;;;;;5026916;28;20427;-86
2021/07/28 12:45:58;;;;;;;5.03;4.53;;;22.80;99.90;;;;;;5043539;28;20407;-85
2021/07/28 12:48:24;;;;;;;4.43;4.03;;;22.70;99.90;;;;;;5043806;28;20501;-87
2021/07/28 12:50:51;;;;;;;6.43;4.37;;;23.00;99.90;;;;;;5049710;28;20490;-87
2021/07/28 12:53:17;;;;;;;4.60;4.17;;;23.10;99.90;;;;;;5039419;28;20608;-85
2021/07/28 12:55:42;;;;;;;4.77;4.30;;;22.90;99.90;;;;;;5060636;28;20532;-87
2021/07/28 12:58:08;;;;;;;4.67;4.27;;;22.80;99.90;;;;;;5073255;28;20200;-87
2021/07/28 13:00:35;;;;;;;5.60;5.10;;;22.70;99.90;;;;;;5081041;28;20179;-86
2021/07/28 13:03:03;;;;;;;5.13;4.30;;;22.70;99.90;;;;;;5103026;28;20167;-86